Terminal Aerodrome Forecast
Issued by NWS Sterling, VA

Current Version | Previous Version | Graphics & Text | Print | Product List | Glossary On
Versions: 1 2 3 4 5 6 7 8 9 10 11 12 13 14 15
000
FTUS41 KLWX 291700 RRA
TAFMRB
TAF
KMRB 291742Z 2918/3018 29006KT P6SM -SHRA OVC040
     FM291900 29007KT P6SM BKN050
     FM292100 30005KT P6SM BKN120
     FM292300 30004KT P6SM FEW250
     FM301200 31005KT P6SM SCT050
      TEMPO 3015/3018 BKN050=

USA.gov is the U.S. government's official web portal to all federal, state and local government web resources and services.